createdAt,value
2023-01-11T00:01:18.215Z,0.70
2023-01-11T00:03:51.627Z,0.73
2023-01-11T00:06:25.331Z,0.80
2023-01-11T00:08:56.349Z,0.80
2023-01-11T00:11:27.072Z,0.80
2023-01-11T00:14:04.536Z,0.90
2023-01-11T00:16:35.387Z,0.90
2023-01-11T00:19:08.797Z,0.73
2023-01-11T00:21:39.855Z,0.80
2023-01-11T00:24:10.775Z,0.83
2023-01-11T00:26:44.036Z,0.90
2023-01-11T00:29:17.883Z,0.90
2023-01-11T00:31:48.695Z,0.60
2023-01-11T00:34:19.656Z,0.97
2023-01-11T00:36:50.405Z,0.73
2023-01-11T00:39:21.445Z,0.80
2023-01-11T00:42:04.679Z,0.83
2023-01-11T00:44:50.435Z,0.77
2023-01-11T00:47:33.803Z,0.70
2023-01-11T00:50:06.639Z,0.80
2023-01-11T00:52:37.451Z,0.60
2023-01-11T00:55:09.465Z,0.60
2023-01-11T00:57:40.402Z,0.60
2023-01-11T01:00:15.342Z,0.60
2023-01-11T01:02:46.417Z,0.50
2023-01-11T01:05:17.964Z,0.60
2023-01-11T01:07:49.342Z,0.47
2023-01-11T01:10:21.016Z,0.50
2023-01-11T01:13:18.911Z,0.60
2023-01-11T01:15:59.856Z,0.70
2023-01-11T01:18:30.915Z,0.50
2023-01-11T01:21:01.735Z,0.50
2023-01-11T01:23:32.494Z,0.60
2023-01-11T01:26:06.079Z,0.50
2023-01-11T01:28:36.934Z,0.50
2023-01-11T01:31:13.178Z,0.50
2023-01-11T01:33:43.947Z,0.70
2023-01-11T01:36:14.693Z,0.60
2023-01-11T01:38:45.476Z,0.60
2023-01-11T01:41:18.993Z,0.50
2023-01-11T01:43:53.436Z,0.70
2023-01-11T01:46:30.509Z,0.50
2023-01-11T01:49:07.023Z,0.50
2023-01-11T01:51:42.491Z,0.50
2023-01-11T01:54:16.845Z,0.40
2023-01-11T01:56:52.283Z,0.50
2023-01-11T01:59:28.460Z,0.50
2023-01-11T02:02:03.087Z,0.60
2023-01-11T02:04:37.339Z,0.50
2023-01-11T02:07:12.777Z,0.40
2023-01-11T02:09:47.943Z,0.40
2023-01-11T02:12:19.144Z,0.43
2023-01-11T02:14:51.714Z,0.40
2023-01-11T02:17:25.095Z,0.50
2023-01-11T02:20:00.192Z,0.50
2023-01-11T02:23:03.545Z,0.50
2023-01-11T02:26:19.092Z,0.43
2023-01-11T02:28:56.563Z,0.50
2023-01-11T02:31:36.015Z,0.57
2023-01-11T02:34:23.710Z,0.50
2023-01-11T02:37:06.617Z,0.47
2023-01-11T02:39:46.639Z,0.50
2023-01-11T02:42:42.441Z,0.40
2023-01-11T02:45:22.809Z,0.50
2023-01-11T02:48:01.011Z,0.50
2023-01-11T02:50:37.805Z,0.60
2023-01-11T02:53:15.237Z,0.40
2023-01-11T02:55:52.148Z,0.60
2023-01-11T02:58:30.976Z,0.50
2023-01-11T03:01:04.738Z,0.40
2023-01-11T03:03:35.464Z,0.40
2023-01-11T03:06:10.168Z,0.60
2023-01-11T03:09:04.510Z,0.40
2023-01-11T03:11:59.501Z,0.40
2023-01-11T03:14:37.593Z,0.50
2023-01-11T03:17:20.797Z,0.40
2023-01-11T03:19:55.285Z,0.50
2023-01-11T03:22:31.493Z,0.43
2023-01-11T03:25:13.674Z,0.40
2023-01-11T03:27:53.651Z,0.40
2023-01-11T03:30:32.269Z,0.40
2023-01-11T03:33:09.353Z,0.40
2023-01-11T03:35:44.135Z,0.40
2023-01-11T03:38:22.486Z,0.40
2023-01-11T03:40:58.462Z,0.40
2023-01-11T03:43:30.818Z,0.40
2023-01-11T03:46:06.708Z,0.40
2023-01-11T03:48:45.418Z,0.50
2023-01-11T03:51:20.455Z,0.50
2023-01-11T03:53:53.960Z,0.50
2023-01-11T03:56:31.852Z,0.60
2023-01-11T03:59:03.726Z,0.40
2023-01-11T04:01:34.681Z,0.40
2023-01-11T04:04:11.041Z,0.40
2023-01-11T04:06:42.038Z,0.40
2023-01-11T04:09:12.844Z,0.40
2023-01-11T04:11:43.645Z,0.60
2023-01-11T04:14:14.611Z,0.40
2023-01-11T04:16:45.349Z,0.30
2023-01-11T04:19:19.088Z,0.40
2023-01-11T04:21:49.880Z,0.47
2023-01-11T04:24:23.822Z,0.50
2023-01-11T04:26:54.936Z,0.47
2023-01-11T04:29:25.978Z,0.40
2023-01-11T04:32:00.199Z,0.50
2023-01-11T04:34:33.681Z,0.40
2023-01-11T04:37:05.018Z,0.37
2023-01-11T04:39:35.749Z,0.40
2023-01-11T04:42:21.858Z,0.50
2023-01-11T04:44:53.672Z,0.40
2023-01-11T04:47:26.601Z,0.37
2023-01-11T04:49:59.895Z,0.30
2023-01-11T04:52:30.776Z,0.40
2023-01-11T04:55:01.502Z,0.40
2023-01-11T04:57:32.249Z,0.50
2023-01-11T05:00:03.011Z,0.40
2023-01-11T05:02:34.021Z,0.50
2023-01-11T05:05:08.577Z,0.43
2023-01-11T05:07:39.838Z,0.40
2023-01-11T05:10:11.949Z,0.40
2023-01-11T05:12:42.942Z,0.40
2023-01-11T05:15:14.186Z,0.50
2023-01-11T05:17:44.953Z,0.40
2023-01-11T05:20:18.895Z,0.60
2023-01-11T05:22:50.589Z,0.43
2023-01-11T05:25:21.294Z,0.60
2023-01-11T05:27:52.008Z,0.53
2023-01-11T05:30:22.965Z,0.63
2023-01-11T05:32:54.113Z,0.60
2023-01-11T05:35:27.537Z,0.57
2023-01-11T05:38:00.631Z,0.60
2023-01-11T05:40:34.323Z,0.67
2023-01-11T05:43:07.649Z,1.00
2023-01-11T05:45:38.031Z,0.50
2023-01-11T05:48:08.899Z,0.80
2023-01-11T05:50:42.185Z,0.60
2023-01-11T05:53:13.196Z,1.20
2023-01-11T05:55:54.917Z,0.60
2023-01-11T05:58:27.742Z,0.50
2023-01-11T06:00:59.410Z,0.60
2023-01-11T06:03:30.273Z,0.60
2023-01-11T06:06:06.185Z,0.50
2023-01-11T06:08:37.099Z,0.50
2023-01-11T06:11:08.220Z,0.50
2023-01-11T06:13:39.068Z,0.60
2023-01-11T06:16:12.720Z,0.80
2023-01-11T06:18:45.467Z,0.60
2023-01-11T06:21:19.893Z,0.77
2023-01-11T06:23:53.898Z,0.63
2023-01-11T06:26:25.620Z,1.10
2023-01-11T06:28:56.328Z,0.90
2023-01-11T06:31:30.197Z,0.73
2023-01-11T06:34:00.965Z,0.60
2023-01-11T06:36:34.462Z,0.80
2023-01-11T06:39:05.424Z,0.77
2023-01-11T06:41:36.181Z,0.60
2023-01-11T06:44:06.961Z,0.60
2023-01-11T06:46:37.711Z,0.60
2023-01-11T06:49:08.481Z,0.90
2023-01-11T06:51:41.828Z,0.70
2023-01-11T06:54:12.880Z,0.80
2023-01-11T06:56:43.564Z,0.70
2023-01-11T06:59:17.491Z,0.70
2023-01-11T07:01:49.325Z,0.90
2023-01-11T07:04:22.452Z,0.93
2023-01-11T07:06:56.407Z,1.00
2023-01-11T07:09:27.325Z,0.90
2023-01-11T07:11:58.050Z,1.00
2023-01-11T07:14:28.865Z,1.10
2023-01-11T07:16:59.907Z,1.20
2023-01-11T07:19:31.049Z,1.13
2023-01-11T07:22:04.411Z,1.10
2023-01-11T07:24:35.291Z,1.00
2023-01-11T07:27:05.988Z,1.30
2023-01-11T07:29:36.728Z,1.20
2023-01-11T07:32:08.304Z,1.50
2023-01-11T07:34:39.078Z,1.90
2023-01-11T07:37:29.075Z,1.50
2023-01-11T07:40:00.345Z,1.60
2023-01-11T07:42:43.592Z,1.30
2023-01-11T07:45:14.493Z,1.33
2023-01-11T07:47:45.233Z,1.50
2023-01-11T07:50:16.271Z,1.33
2023-01-11T07:52:52.947Z,1.40
2023-01-11T07:55:24.269Z,1.40
2023-01-11T07:57:54.981Z,1.90
2023-01-11T08:00:26.604Z,1.80
2023-01-11T08:03:03.429Z,1.30
2023-01-11T08:05:34.250Z,1.33
2023-01-11T08:08:08.279Z,1.33
2023-01-11T08:10:41.943Z,1.43
2023-01-11T08:13:28.017Z,2.00
2023-01-11T08:16:00.428Z,1.80
2023-01-11T08:18:31.191Z,1.50
2023-01-11T08:21:02.076Z,1.80
2023-01-11T08:23:36.881Z,1.90
2023-01-11T08:26:12.290Z,1.67
2023-01-11T08:28:42.983Z,2.00
2023-01-11T08:31:16.519Z,1.77
2023-01-11T08:33:47.465Z,1.97
2023-01-11T08:36:18.626Z,2.50
2023-01-11T08:38:56.092Z,2.97
2023-01-11T08:41:29.576Z,3.37
2023-01-11T08:44:00.278Z,2.90
2023-01-11T08:46:33.777Z,3.57
2023-01-11T08:49:05.113Z,3.50
2023-01-11T08:51:35.961Z,3.80
2023-01-11T08:54:10.278Z,3.50
2023-01-11T08:56:41.227Z,5.03
2023-01-11T08:59:13.593Z,4.30
2023-01-11T09:01:44.523Z,4.77
2023-01-11T09:04:25.203Z,4.40
2023-01-11T09:06:56.985Z,5.20
2023-01-11T09:09:30.327Z,4.90
2023-01-11T09:12:05.505Z,4.70
2023-01-11T09:14:36.665Z,5.03
2023-01-11T09:17:07.472Z,5.30
2023-01-11T09:19:40.291Z,5.63
2023-01-11T09:22:11.098Z,5.30
2023-01-11T09:24:44.409Z,5.60
2023-01-11T09:27:15.293Z,5.00
2023-01-11T09:29:46.174Z,3.77
2023-01-11T09:32:17.027Z,3.03
2023-01-11T09:34:49.715Z,4.00
2023-01-11T09:37:22.640Z,3.40
2023-01-11T09:39:59.712Z,3.50
2023-01-11T09:42:39.469Z,3.27
2023-01-11T09:45:21.673Z,3.20
2023-01-11T09:48:00.424Z,2.93
2023-01-11T09:50:36.037Z,3.67
2023-01-11T09:53:09.891Z,3.50
2023-01-11T09:55:46.833Z,3.20
2023-01-11T09:58:46.615Z,3.03
2023-01-11T10:01:21.979Z,3.50
2023-01-11T10:04:33.364Z,3.57
2023-01-11T10:07:37.372Z,3.30
2023-01-11T10:18:32.233Z,3.53
2023-01-11T10:19:40.624Z,2.70
2023-01-11T10:22:19.688Z,3.30
2023-01-11T10:24:56.363Z,3.90
2023-01-11T10:27:32.897Z,4.10
2023-01-11T10:30:33.346Z,4.00
2023-01-11T10:33:18.331Z,3.90
2023-01-11T10:36:10.601Z,4.63
2023-01-11T10:38:59.277Z,4.93
2023-01-11T10:41:38.781Z,5.60
2023-01-11T10:44:19.572Z,5.90
2023-01-11T10:47:00.201Z,6.53
2023-01-11T10:49:46.551Z,7.47
2023-01-11T10:52:36.765Z,6.40
2023-01-11T10:55:15.617Z,7.00
2023-01-11T10:58:02.756Z,6.37
2023-01-11T11:00:41.942Z,7.07
2023-01-11T11:03:43.139Z,6.90
2023-01-11T11:06:24.451Z,7.10
2023-01-11T11:09:01.419Z,7.63
2023-01-11T11:11:37.720Z,6.80
2023-01-11T11:14:17.339Z,6.13
2023-01-11T11:16:58.931Z,6.10
2023-01-11T11:19:34.816Z,6.07
2023-01-11T11:22:05.573Z,6.17
2023-01-11T11:24:41.564Z,6.50
2023-01-11T11:27:20.797Z,6.53
2023-01-11T11:29:57.084Z,6.07
2023-01-11T11:32:31.719Z,5.10
2023-01-11T11:35:05.394Z,4.90
2023-01-11T11:37:38.499Z,5.47
2023-01-11T11:40:29.712Z,4.77
2023-01-11T11:43:23.048Z,4.90
2023-01-11T11:45:58.096Z,5.00
2023-01-11T11:48:31.260Z,4.30
2023-01-11T11:51:07.722Z,3.70
2023-01-11T11:53:43.378Z,2.87
2023-01-11T11:56:20.704Z,2.80
2023-01-11T11:58:51.852Z,2.70
2023-01-11T12:01:30.054Z,3.30
2023-01-11T12:04:05.151Z,2.80
2023-01-11T12:06:38.544Z,3.00
2023-01-11T12:09:15.251Z,3.43
2023-01-11T12:11:50.897Z,3.30
2023-01-11T12:14:26.702Z,4.17
2023-01-11T12:16:57.669Z,3.30
2023-01-11T12:19:30.444Z,3.57
2023-01-11T12:22:20.957Z,3.80
2023-01-11T12:25:09.186Z,3.90
2023-01-11T12:27:48.372Z,3.57
2023-01-11T12:30:26.935Z,3.43
2023-01-11T12:33:19.054Z,3.83
2023-01-11T12:35:56.711Z,4.30
2023-01-11T12:38:42.373Z,4.20
2023-01-11T12:41:43.778Z,4.20
2023-01-11T12:44:23.468Z,5.33
2023-01-11T12:47:18.133Z,4.87
2023-01-11T12:49:59.155Z,5.20
2023-01-11T12:52:49.848Z,6.27
2023-01-11T12:55:42.085Z,4.57
2023-01-11T12:58:17.992Z,4.80
2023-01-11T13:01:01.779Z,4.90
2023-01-11T13:04:07.207Z,5.97
2023-01-11T13:06:43.554Z,3.70
2023-01-11T13:09:30.609Z,3.93
2023-01-11T13:12:12.401Z,4.37
2023-01-11T13:14:57.758Z,3.20
2023-01-11T13:17:36.336Z,3.63
2023-01-11T13:20:25.702Z,3.40
2023-01-11T13:23:01.452Z,3.67
2023-01-11T13:25:36.510Z,3.70
2023-01-11T13:28:24.415Z,3.27
2023-01-11T13:30:55.857Z,3.67
2023-01-11T13:33:33.798Z,3.83
2023-01-11T13:36:22.915Z,3.40
2023-01-11T13:39:01.817Z,3.10
2023-01-11T13:41:42.054Z,2.93
2023-01-11T13:44:23.495Z,3.70
2023-01-11T13:47:07.537Z,3.40
2023-01-11T13:49:46.712Z,2.70
2023-01-11T13:52:25.434Z,3.10
2023-01-11T13:55:01.890Z,2.60
2023-01-11T13:57:37.817Z,2.83
2023-01-11T14:00:23.132Z,2.90
2023-01-11T14:03:00.676Z,2.73
2023-01-11T14:05:38.580Z,2.73
2023-01-11T14:08:26.720Z,3.20
2023-01-11T14:11:06.277Z,3.37
2023-01-11T14:14:03.253Z,2.60
2023-01-11T14:16:47.727Z,2.80
2023-01-11T14:19:27.969Z,3.10
2023-01-11T14:22:13.758Z,3.10
2023-01-11T14:24:58.668Z,3.30
2023-01-11T14:27:50.302Z,3.63
2023-01-11T14:30:40.144Z,3.50
2023-01-11T14:33:48.493Z,3.83
2023-01-11T14:36:46.483Z,2.87
2023-01-11T14:39:38.051Z,3.20
2023-01-11T14:42:42.131Z,2.90
2023-01-11T14:45:23.179Z,2.83
2023-01-11T14:48:08.985Z,3.13
2023-01-11T14:51:07.270Z,4.07
2023-01-11T14:53:43.197Z,2.50
2023-01-11T14:56:39.157Z,2.90
2023-01-11T14:59:26.185Z,2.67
2023-01-11T15:02:27.715Z,3.00
2023-01-11T15:05:10.018Z,3.20
2023-01-11T15:07:44.879Z,2.47
2023-01-11T15:10:48.324Z,2.73
2023-01-11T15:13:22.845Z,2.27
2023-01-11T15:16:07.500Z,2.43
2023-01-11T15:18:47.229Z,3.03
2023-01-11T15:21:21.540Z,2.80
2023-01-11T15:23:57.895Z,3.03
2023-01-11T15:26:32.631Z,2.50
2023-01-11T15:29:05.084Z,3.07
2023-01-11T15:31:39.798Z,2.43
2023-01-11T15:34:27.202Z,2.57
2023-01-11T15:37:28.523Z,4.03
2023-01-11T15:40:06.644Z,3.33
2023-01-11T15:43:14.951Z,2.77
2023-01-11T15:46:30.374Z,2.70
2023-01-11T15:49:22.156Z,2.80
2023-01-11T15:52:18.108Z,3.33
2023-01-11T15:55:22.565Z,3.63
2023-01-11T15:58:24.230Z,2.87
2023-01-11T16:01:23.505Z,2.77
2023-01-11T16:04:14.972Z,3.13
2023-01-11T16:06:50.188Z,2.80
2023-01-11T16:09:41.316Z,2.57
2023-01-11T16:12:34.223Z,3.30
2023-01-11T16:15:30.438Z,3.87
2023-01-11T16:18:13.396Z,2.40
2023-01-11T16:20:58.433Z,2.63
2023-01-11T16:23:30.433Z,3.53
2023-01-11T16:26:02.346Z,3.83
2023-01-11T16:28:33.221Z,3.20
2023-01-11T16:31:10.628Z,3.43
2023-01-11T16:33:41.577Z,3.50
2023-01-11T16:36:15.744Z,3.00
2023-01-11T16:38:56.653Z,3.93
2023-01-11T16:41:34.250Z,3.77
2023-01-11T16:44:08.819Z,4.63
2023-01-11T16:47:13.254Z,3.57
2023-01-11T16:49:48.843Z,3.63
2023-01-11T16:52:43.349Z,4.00
2023-01-11T16:55:24.604Z,4.13
2023-01-11T16:58:01.156Z,3.50
2023-01-11T17:00:36.334Z,4.30
2023-01-11T17:03:25.014Z,3.93
2023-01-11T17:05:58.388Z,4.23
2023-01-11T17:08:32.476Z,3.63
2023-01-11T17:11:06.968Z,4.00
2023-01-11T17:13:59.183Z,5.30
2023-01-11T17:16:33.312Z,4.60
2023-01-11T17:19:11.235Z,4.00
2023-01-11T17:21:43.787Z,3.40
2023-01-11T17:24:17.177Z,3.10
2023-01-11T17:26:50.483Z,4.47
2023-01-11T17:29:29.161Z,3.90
2023-01-11T17:32:02.931Z,4.10
2023-01-11T17:34:38.753Z,5.20
2023-01-11T17:37:13.984Z,4.00
2023-01-11T17:39:48.809Z,3.20
2023-01-11T17:42:32.651Z,4.20
2023-01-11T17:45:20.616Z,3.07
2023-01-11T17:47:55.172Z,3.10
2023-01-11T17:50:31.871Z,3.70
2023-01-11T17:53:14.407Z,3.57
2023-01-11T17:55:53.986Z,2.97
2023-01-11T17:58:29.099Z,4.17
2023-01-11T18:01:22.623Z,3.13
2023-01-11T18:03:57.039Z,2.73
2023-01-11T18:06:37.578Z,3.27
2023-01-11T18:09:11.195Z,2.20
2023-01-11T18:11:47.400Z,2.70
2023-01-11T18:14:22.645Z,1.87
2023-01-11T18:17:02.305Z,2.77
2023-01-11T18:19:41.650Z,2.83
2023-01-11T18:22:33.315Z,2.97
2023-01-11T18:25:06.062Z,2.50
2023-01-11T18:27:38.205Z,2.43
2023-01-11T18:30:12.089Z,2.30
2023-01-11T18:32:45.748Z,2.50
2023-01-11T18:35:22.163Z,3.03
2023-01-11T18:37:55.580Z,2.53
2023-01-11T18:40:31.046Z,3.43
2023-01-11T18:43:02.980Z,3.20
2023-01-11T18:45:33.905Z,2.93
2023-01-11T18:48:04.777Z,2.60
2023-01-11T18:50:35.599Z,2.20
2023-01-11T18:53:09.102Z,1.80
2023-01-11T18:55:39.905Z,2.60
2023-01-11T18:58:10.808Z,2.90
2023-01-11T19:00:42.033Z,2.70
2023-01-11T19:05:46.570Z,2.80
2023-01-11T19:08:20.017Z,2.70
2023-01-11T19:10:51.580Z,2.70
2023-01-11T19:13:22.994Z,2.97
2023-01-11T19:15:53.786Z,2.40
2023-01-11T19:18:24.678Z,2.80
2023-01-11T19:20:55.396Z,3.80
2023-01-11T19:23:28.878Z,2.77
2023-01-11T19:26:01.374Z,2.50
2023-01-11T19:28:32.451Z,2.60
2023-01-11T19:31:03.367Z,2.23
2023-01-11T19:33:37.399Z,2.93
2023-01-11T19:36:09.140Z,2.20
2023-01-11T19:38:42.533Z,4.73
2023-01-11T19:41:16.563Z,2.53
2023-01-11T19:43:47.472Z,2.57
2023-01-11T19:46:31.169Z,3.00
2023-01-11T19:49:02.715Z,2.30
2023-01-11T19:51:33.537Z,3.07
2023-01-11T19:54:07.868Z,2.33
2023-01-11T19:56:38.591Z,2.17
2023-01-11T19:59:09.631Z,1.93
2023-01-11T20:01:41.711Z,2.47
2023-01-11T20:04:15.175Z,2.63
2023-01-11T20:06:50.503Z,2.23
2023-01-11T20:09:24.765Z,2.83
2023-01-11T20:11:55.862Z,2.90
2023-01-11T20:14:26.945Z,2.13
2023-01-11T20:17:00.914Z,2.33
2023-01-11T20:19:31.714Z,2.50
2023-01-11T20:22:02.454Z,2.20
2023-01-11T20:24:35.945Z,2.83
2023-01-11T20:27:06.895Z,2.40
2023-01-11T20:29:37.848Z,3.10
2023-01-11T20:32:31.282Z,2.83
2023-01-11T20:35:02.168Z,2.93
2023-01-11T20:37:35.433Z,3.40
2023-01-11T20:40:11.856Z,3.17
2023-01-11T20:42:43.885Z,2.50
2023-01-11T20:45:15.039Z,2.60
2023-01-11T20:47:45.857Z,3.10
2023-01-11T20:50:16.641Z,2.37
2023-01-11T20:52:47.406Z,3.47
2023-01-11T20:55:20.906Z,2.80
2023-01-11T20:57:51.758Z,3.10
2023-01-11T21:00:26.542Z,3.53
2023-01-11T21:02:57.520Z,3.53
2023-01-11T21:05:31.206Z,3.23
2023-01-11T21:08:03.350Z,2.90
2023-01-11T21:10:36.748Z,3.30
2023-01-11T21:15:40.547Z,2.77
2023-01-11T21:18:11.338Z,2.60
2023-01-11T21:20:42.450Z,2.90
2023-01-11T21:23:15.308Z,2.60
2023-01-11T21:25:48.662Z,2.70
2023-01-11T21:28:19.352Z,2.17
2023-01-11T21:30:50.186Z,2.67
2023-01-11T21:33:22.333Z,2.93
2023-01-11T21:35:53.007Z,2.53
2023-01-11T21:38:26.984Z,2.63
2023-01-11T21:41:09.318Z,2.87
2023-01-11T21:43:43.295Z,2.60
2023-01-11T21:46:15.424Z,2.40
2023-01-11T21:48:46.788Z,2.33
2023-01-11T21:51:20.106Z,2.80
2023-01-11T21:53:50.934Z,2.43
2023-01-11T21:56:24.693Z,1.80
2023-01-11T21:58:58.205Z,2.33
2023-01-11T22:01:29.245Z,2.90
2023-01-11T22:04:00.042Z,2.90
2023-01-11T22:06:30.877Z,3.00
2023-01-11T22:09:01.835Z,2.83
2023-01-11T22:11:35.816Z,2.97
2023-01-11T22:14:08.705Z,2.70
2023-01-11T22:16:40.683Z,3.23
2023-01-11T22:19:11.846Z,2.23
2023-01-11T22:21:42.678Z,2.20
2023-01-11T22:24:16.758Z,2.33
2023-01-11T22:26:51.661Z,2.33
2023-01-11T22:29:22.512Z,2.57
2023-01-11T22:31:56.926Z,2.23
2023-01-11T22:34:27.821Z,2.90
2023-01-11T22:36:59.425Z,2.17
2023-01-11T22:39:32.356Z,2.30
2023-01-11T22:42:05.807Z,2.53
2023-01-11T22:44:39.434Z,2.73
2023-01-11T22:47:10.424Z,2.47
2023-01-11T22:49:41.142Z,2.97
2023-01-11T22:52:11.905Z,3.10
2023-01-11T22:54:42.686Z,2.10
2023-01-11T22:57:16.138Z,2.80
2023-01-11T22:59:48.367Z,2.93
2023-01-11T23:02:22.177Z,2.60
2023-01-11T23:04:52.992Z,1.97
2023-01-11T23:07:27.391Z,2.10
2023-01-11T23:09:58.195Z,2.00
2023-01-11T23:12:45.005Z,3.17
2023-01-11T23:15:15.799Z,2.67
2023-01-11T23:17:49.472Z,2.27
2023-01-11T23:20:22.501Z,2.80
2023-01-11T23:22:53.720Z,2.40
2023-01-11T23:25:24.465Z,2.43
2023-01-11T23:27:58.601Z,3.00
2023-01-11T23:30:29.396Z,2.60
2023-01-11T23:33:00.168Z,2.57
2023-01-11T23:35:31.167Z,2.50
2023-01-11T23:38:02.272Z,2.70
2023-01-11T23:40:53.093Z,2.37
2023-01-11T23:43:27.466Z,2.40
2023-01-11T23:46:18.280Z,2.70
2023-01-11T23:48:46.525Z,2.40
2023-01-11T23:51:17.556Z,2.40
2023-01-11T23:53:48.324Z,2.20
2023-01-11T23:56:19.200Z,2.60
2023-01-11T23:58:53.423Z,2.77
